sensor_id;sensor_type;location;lat;lon;timestamp;temperature;humidity
46898;DHT22;32646;50.958;6.258;2022-10-16T00:00:52;14.00;99.90
46898;DHT22;32646;50.958;6.258;2022-10-16T00:03:18;14.00;99.90
46898;DHT22;32646;50.958;6.258;2022-10-16T00:05:45;14.10;99.90
46898;DHT22;32646;50.958;6.258;2022-10-16T00:08:11;14.10;99.90
46898;DHT22;32646;50.958;6.258;2022-10-16T00:10:38;14.20;99.90
46898;DHT22;32646;50.958;6.258;2022-10-16T00:13:05;14.10;99.90
46898;DHT22;32646;50.958;6.258;2022-10-16T00:15:38;14.10;99.90
46898;DHT22;32646;50.958;6.258;2022-10-16T00:18:04;14.10;99.90
46898;DHT22;32646;50.958;6.258;2022-10-16T00:20:33;14.10;99.90
46898;DHT22;32646;50.958;6.258;2022-10-16T00:22:59;14.10;99.90
46898;DHT22;32646;50.958;6.258;2022-10-16T00:25:26;14.10;99.90
46898;DHT22;32646;50.958;6.258;2022-10-16T00:27:52;14.10;99.90
46898;DHT22;32646;50.958;6.258;2022-10-16T00:30:19;14.00;99.90
46898;DHT22;32646;50.958;6.258;2022-10-16T00:32:45;13.90;99.90
46898;DHT22;32646;50.958;6.258;2022-10-16T00:35:11;13.80;99.90
46898;DHT22;32646;50.958;6.258;2022-10-16T00:37:38;13.80;99.90
46898;DHT22;32646;50.958;6.258;2022-10-16T00:40:04;13.70;99.90
46898;DHT22;32646;50.958;6.258;2022-10-16T00:42:31;13.50;99.90
46898;DHT22;32646;50.958;6.258;2022-10-16T00:44:58;13.40;99.90
46898;DHT22;32646;50.958;6.258;2022-10-16T00:47:29;13.20;99.90
46898;DHT22;32646;50.958;6.258;2022-10-16T00:49:58;13.10;99.90
46898;DHT22;32646;50.958;6.258;2022-10-16T00:52:26;13.00;99.90
46898;DHT22;32646;50.958;6.258;2022-10-16T00:54:53;12.90;99.90
46898;DHT22;32646;50.958;6.258;2022-10-16T00:57:20;12.80;99.90
46898;DHT22;32646;50.958;6.258;2022-10-16T00:59:47;12.70;99.90
46898;DHT22;32646;50.958;6.258;2022-10-16T01:02:14;12.70;99.90
46898;DHT22;32646;50.958;6.258;2022-10-16T01:04:43;12.60;99.90
46898;DHT22;32646;50.958;6.258;2022-10-16T01:07:12;12.60;99.90
46898;DHT22;32646;50.958;6.258;2022-10-16T01:12:10;12.60;99.90
46898;DHT22;32646;50.958;6.258;2022-10-16T01:14:43;12.60;99.90
46898;DHT22;32646;50.958;6.258;2022-10-16T01:17:12;12.60;99.90
46898;DHT22;32646;50.958;6.258;2022-10-16T01:19:50;12.60;99.90
46898;DHT22;32646;50.958;6.258;2022-10-16T01:22:18;12.50;99.90
46898;DHT22;32646;50.958;6.258;2022-10-16T01:24:46;12.40;99.90
46898;DHT22;32646;50.958;6.258;2022-10-16T01:27:15;12.40;99.90
46898;DHT22;32646;50.958;6.258;2022-10-16T01:29:48;12.30;99.90
46898;DHT22;32646;50.958;6.258;2022-10-16T01:34:43;12.20;99.90
46898;DHT22;32646;50.958;6.258;2022-10-16T01:37:12;12.20;99.90
46898;DHT22;32646;50.958;6.258;2022-10-16T01:39:41;12.20;99.90
46898;DHT22;32646;50.958;6.258;2022-10-16T01:42:13;12.30;99.90
46898;DHT22;32646;50.958;6.258;2022-10-16T01:44:41;12.20;99.90
46898;DHT22;32646;50.958;6.258;2022-10-16T01:47:09;12.30;99.90
46898;DHT22;32646;50.958;6.258;2022-10-16T01:49:37;12.40;99.90
46898;DHT22;32646;50.958;6.258;2022-10-16T01:52:09;12.60;99.90
46898;DHT22;32646;50.958;6.258;2022-10-16T01:54:37;12.70;99.90
46898;DHT22;32646;50.958;6.258;2022-10-16T01:57:04;12.70;99.90
46898;DHT22;32646;50.958;6.258;2022-10-16T01:59:32;12.80;99.90
46898;DHT22;32646;50.958;6.258;2022-10-16T02:02:02;12.90;99.90
46898;DHT22;32646;50.958;6.258;2022-10-16T02:06:56;13.00;99.90
46898;DHT22;32646;50.958;6.258;2022-10-16T02:09:23;13.10;99.90
46898;DHT22;32646;50.958;6.258;2022-10-16T02:11:50;13.10;99.90
46898;DHT22;32646;50.958;6.258;2022-10-16T02:14:19;13.20;99.90
46898;DHT22;32646;50.958;6.258;2022-10-16T02:16:46;13.20;99.90
46898;DHT22;32646;50.958;6.258;2022-10-16T02:19:13;13.10;99.90
46898;DHT22;32646;50.958;6.258;2022-10-16T02:27:06;13.40;99.90
46898;DHT22;32646;50.958;6.258;2022-10-16T02:29:36;13.50;99.90
46898;DHT22;32646;50.958;6.258;2022-10-16T02:32:04;13.60;99.90
46898;DHT22;32646;50.958;6.258;2022-10-16T02:34:32;13.80;99.90
46898;DHT22;32646;50.958;6.258;2022-10-16T02:36:59;13.80;99.90
46898;DHT22;32646;50.958;6.258;2022-10-16T02:39:28;13.90;99.90
46898;DHT22;32646;50.958;6.258;2022-10-16T02:41:55;13.90;99.90
46898;DHT22;32646;50.958;6.258;2022-10-16T02:44:21;14.00;99.90
46898;DHT22;32646;50.958;6.258;2022-10-16T02:46:47;13.90;99.90
46898;DHT22;32646;50.958;6.258;2022-10-16T02:49:14;13.90;99.90
46898;DHT22;32646;50.958;6.258;2022-10-16T02:51:40;13.90;99.90
46898;DHT22;32646;50.958;6.258;2022-10-16T02:54:07;13.90;99.90
46898;DHT22;32646;50.958;6.258;2022-10-16T02:56:33;13.90;99.90
46898;DHT22;32646;50.958;6.258;2022-10-16T02:59:00;13.90;99.90
46898;DHT22;32646;50.958;6.258;2022-10-16T03:01:26;14.00;99.90
46898;DHT22;32646;50.958;6.258;2022-10-16T03:03:53;13.90;99.90
46898;DHT22;32646;50.958;6.258;2022-10-16T03:06:19;14.00;99.90
46898;DHT22;32646;50.958;6.258;2022-10-16T03:08:46;14.00;99.90
46898;DHT22;32646;50.958;6.258;2022-10-16T03:11:12;14.00;99.90
46898;DHT22;32646;50.958;6.258;2022-10-16T03:13:38;13.90;99.90
46898;DHT22;32646;50.958;6.258;2022-10-16T03:16:05;13.90;99.90
46898;DHT22;32646;50.958;6.258;2022-10-16T03:18:31;13.80;99.90
46898;DHT22;32646;50.958;6.258;2022-10-16T03:20:58;13.80;99.90
46898;DHT22;32646;50.958;6.258;2022-10-16T03:23:24;13.80;99.90
46898;DHT22;32646;50.958;6.258;2022-10-16T03:25:51;13.80;99.90
46898;DHT22;32646;50.958;6.258;2022-10-16T03:28:17;13.80;99.90
46898;DHT22;32646;50.958;6.258;2022-10-16T03:30:44;13.80;99.90
46898;DHT22;32646;50.958;6.258;2022-10-16T03:33:10;13.80;99.90
46898;DHT22;32646;50.958;6.258;2022-10-16T03:35:37;13.80;99.90
46898;DHT22;32646;50.958;6.258;2022-10-16T03:38:04;13.80;99.90
46898;DHT22;32646;50.958;6.258;2022-10-16T03:40:30;13.70;99.90
46898;DHT22;32646;50.958;6.258;2022-10-16T03:42:56;13.80;99.90
46898;DHT22;32646;50.958;6.258;2022-10-16T03:45:23;13.70;99.90
46898;DHT22;32646;50.958;6.258;2022-10-16T03:47:49;13.70;99.90
46898;DHT22;32646;50.958;6.258;2022-10-16T03:50:16;13.70;99.90
46898;DHT22;32646;50.958;6.258;2022-10-16T03:52:42;13.80;99.90
46898;DHT22;32646;50.958;6.258;2022-10-16T03:55:09;13.80;99.90
46898;DHT22;32646;50.958;6.258;2022-10-16T03:57:35;13.80;99.90
46898;DHT22;32646;50.958;6.258;2022-10-16T04:00:02;13.80;99.90
46898;DHT22;32646;50.958;6.258;2022-10-16T04:02:29;13.90;99.90
46898;DHT22;32646;50.958;6.258;2022-10-16T04:04:55;13.90;99.90
46898;DHT22;32646;50.958;6.258;2022-10-16T04:07:22;13.90;99.90
46898;DHT22;32646;50.958;6.258;2022-10-16T04:09:48;13.90;99.90
46898;DHT22;32646;50.958;6.258;2022-10-16T04:12:15;13.90;99.90
46898;DHT22;32646;50.958;6.258;2022-10-16T04:14:41;13.90;99.90
46898;DHT22;32646;50.958;6.258;2022-10-16T04:17:08;13.90;99.90
46898;DHT22;32646;50.958;6.258;2022-10-16T04:19:34;13.90;99.90
46898;DHT22;32646;50.958;6.258;2022-10-16T04:22:00;13.90;99.90
46898;DHT22;32646;50.958;6.258;2022-10-16T04:24:27;13.90;99.90
46898;DHT22;32646;50.958;6.258;2022-10-16T04:26:53;13.90;99.90
46898;DHT22;32646;50.958;6.258;2022-10-16T04:29:20;13.90;99.90
46898;DHT22;32646;50.958;6.258;2022-10-16T04:31:46;13.90;99.90
46898;DHT22;32646;50.958;6.258;2022-10-16T04:34:13;13.80;99.90
46898;DHT22;32646;50.958;6.258;2022-10-16T04:36:39;13.80;99.90
46898;DHT22;32646;50.958;6.258;2022-10-16T04:39:06;13.70;99.90
46898;DHT22;32646;50.958;6.258;2022-10-16T04:41:32;13.70;99.90
46898;DHT22;32646;50.958;6.258;2022-10-16T04:43:58;13.60;99.90
46898;DHT22;32646;50.958;6.258;2022-10-16T04:46:25;13.60;99.90
46898;DHT22;32646;50.958;6.258;2022-10-16T04:48:51;13.50;99.90
46898;DHT22;32646;50.958;6.258;2022-10-16T04:51:18;13.40;99.90
46898;DHT22;32646;50.958;6.258;2022-10-16T04:53:44;13.40;99.90
46898;DHT22;32646;50.958;6.258;2022-10-16T04:56:11;13.30;99.90
46898;DHT22;32646;50.958;6.258;2022-10-16T04:58:37;13.30;99.90
46898;DHT22;32646;50.958;6.258;2022-10-16T05:01:03;13.30;99.90
46898;DHT22;32646;50.958;6.258;2022-10-16T05:03:30;13.30;99.90
46898;DHT22;32646;50.958;6.258;2022-10-16T05:06:01;13.30;99.90
46898;DHT22;32646;50.958;6.258;2022-10-16T05:08:28;13.30;99.90
46898;DHT22;32646;50.958;6.258;2022-10-16T05:10:54;13.30;99.90
46898;DHT22;32646;50.958;6.258;2022-10-16T05:13:21;13.30;99.90
46898;DHT22;32646;50.958;6.258;2022-10-16T05:15:47;13.30;99.90
46898;DHT22;32646;50.958;6.258;2022-10-16T05:18:14;13.20;99.90
46898;DHT22;32646;50.958;6.258;2022-10-16T05:20:41;13.20;99.90
46898;DHT22;32646;50.958;6.258;2022-10-16T05:23:07;13.10;99.90
46898;DHT22;32646;50.958;6.258;2022-10-16T05:25:34;13.10;99.90
46898;DHT22;32646;50.958;6.258;2022-10-16T05:28:00;13.10;99.90
46898;DHT22;32646;50.958;6.258;2022-10-16T05:30:27;13.20;99.90
46898;DHT22;32646;50.958;6.258;2022-10-16T05:32:53;13.30;99.90
46898;DHT22;32646;50.958;6.258;2022-10-16T05:35:20;13.30;99.90
46898;DHT22;32646;50.958;6.258;2022-10-16T05:37:47;13.30;99.90
46898;DHT22;32646;50.958;6.258;2022-10-16T05:40:13;13.40;99.90
46898;DHT22;32646;50.958;6.258;2022-10-16T05:42:40;13.40;99.90
46898;DHT22;32646;50.958;6.258;2022-10-16T05:45:07;13.30;99.90
46898;DHT22;32646;50.958;6.258;2022-10-16T05:47:35;13.30;99.90
46898;DHT22;32646;50.958;6.258;2022-10-16T05:50:01;13.30;99.90
46898;DHT22;32646;50.958;6.258;2022-10-16T05:52:28;13.20;99.90
46898;DHT22;32646;50.958;6.258;2022-10-16T05:54:54;13.20;99.90
46898;DHT22;32646;50.958;6.258;2022-10-16T05:57:21;13.20;99.90
46898;DHT22;32646;50.958;6.258;2022-10-16T05:59:47;13.20;99.90
46898;DHT22;32646;50.958;6.258;2022-10-16T06:02:14;13.20;99.90
46898;DHT22;32646;50.958;6.258;2022-10-16T06:04:40;13.20;99.90
46898;DHT22;32646;50.958;6.258;2022-10-16T06:07:07;13.20;99.90
46898;DHT22;32646;50.958;6.258;2022-10-16T06:09:33;13.30;99.90
46898;DHT22;32646;50.958;6.258;2022-10-16T06:12:00;13.30;99.90
46898;DHT22;32646;50.958;6.258;2022-10-16T06:14:26;13.30;99.90
46898;DHT22;32646;50.958;6.258;2022-10-16T06:16:53;13.30;99.90
46898;DHT22;32646;50.958;6.258;2022-10-16T06:19:19;13.30;99.90
46898;DHT22;32646;50.958;6.258;2022-10-16T06:21:46;13.30;99.90
46898;DHT22;32646;50.958;6.258;2022-10-16T06:24:12;13.30;99.90
46898;DHT22;32646;50.958;6.258;2022-10-16T06:26:38;13.40;99.90
46898;DHT22;32646;50.958;6.258;2022-10-16T06:29:05;13.50;99.90
46898;DHT22;32646;50.958;6.258;2022-10-16T06:31:31;13.50;99.90
46898;DHT22;32646;50.958;6.258;2022-10-16T06:33:58;13.60;99.90
46898;DHT22;32646;50.958;6.258;2022-10-16T06:36:25;13.60;99.90
46898;DHT22;32646;50.958;6.258;2022-10-16T06:38:52;13.70;99.90
46898;DHT22;32646;50.958;6.258;2022-10-16T06:41:19;13.80;99.90
46898;DHT22;32646;50.958;6.258;2022-10-16T06:43:46;13.80;99.90
46898;DHT22;32646;50.958;6.258;2022-10-16T06:46:14;13.90;99.90
46898;DHT22;32646;50.958;6.258;2022-10-16T06:48:40;13.90;99.90
46898;DHT22;32646;50.958;6.258;2022-10-16T06:51:11;13.90;99.90
46898;DHT22;32646;50.958;6.258;2022-10-16T06:53:38;13.90;99.90
46898;DHT22;32646;50.958;6.258;2022-10-16T06:56:21;13.80;99.90
46898;DHT22;32646;50.958;6.258;2022-10-16T06:58:48;13.70;99.90
46898;DHT22;32646;50.958;6.258;2022-10-16T07:01:15;13.80;99.90
46898;DHT22;32646;50.958;6.258;2022-10-16T07:03:42;13.80;99.90
46898;DHT22;32646;50.958;6.258;2022-10-16T07:06:10;13.70;99.90
46898;DHT22;32646;50.958;6.258;2022-10-16T07:08:38;13.70;99.90
46898;DHT22;32646;50.958;6.258;2022-10-16T07:11:06;13.70;99.90
46898;DHT22;32646;50.958;6.258;2022-10-16T07:13:33;13.90;99.90
46898;DHT22;32646;50.958;6.258;2022-10-16T07:16:06;14.20;99.90
46898;DHT22;32646;50.958;6.258;2022-10-16T07:18:33;14.50;99.90
46898;DHT22;32646;50.958;6.258;2022-10-16T07:21:03;15.00;99.90
46898;DHT22;32646;50.958;6.258;2022-10-16T07:23:30;15.10;99.90
46898;DHT22;32646;50.958;6.258;2022-10-16T07:25:56;14.90;99.90
46898;DHT22;32646;50.958;6.258;2022-10-16T07:28:22;14.80;99.90
46898;DHT22;32646;50.958;6.258;2022-10-16T07:30:49;14.50;99.90
46898;DHT22;32646;50.958;6.258;2022-10-16T07:33:16;14.40;99.90
46898;DHT22;32646;50.958;6.258;2022-10-16T07:35:51;14.30;99.90
46898;DHT22;32646;50.958;6.258;2022-10-16T07:38:18;14.60;99.90
46898;DHT22;32646;50.958;6.258;2022-10-16T07:40:44;15.30;99.90
46898;DHT22;32646;50.958;6.258;2022-10-16T07:43:11;16.10;99.90
46898;DHT22;32646;50.958;6.258;2022-10-16T07:45:37;17.00;99.90
46898;DHT22;32646;50.958;6.258;2022-10-16T07:48:04;17.50;99.90
46898;DHT22;32646;50.958;6.258;2022-10-16T07:50:31;17.70;99.90
46898;DHT22;32646;50.958;6.258;2022-10-16T07:52:58;18.30;99.90
46898;DHT22;32646;50.958;6.258;2022-10-16T07:55:25;18.80;99.90
46898;DHT22;32646;50.958;6.258;2022-10-16T07:57:54;19.00;99.90
46898;DHT22;32646;50.958;6.258;2022-10-16T08:00:20;19.20;99.90
46898;DHT22;32646;50.958;6.258;2022-10-16T08:02:48;19.10;99.90
46898;DHT22;32646;50.958;6.258;2022-10-16T08:05:14;19.60;99.90
46898;DHT22;32646;50.958;6.258;2022-10-16T08:07:42;19.90;99.90
46898;DHT22;32646;50.958;6.258;2022-10-16T08:10:14;19.30;99.90
46898;DHT22;32646;50.958;6.258;2022-10-16T08:12:41;19.30;99.90
46898;DHT22;32646;50.958;6.258;2022-10-16T08:15:08;19.20;99.90
46898;DHT22;32646;50.958;6.258;2022-10-16T08:17:35;19.00;99.90
46898;DHT22;32646;50.958;6.258;2022-10-16T08:20:02;19.00;99.90
46898;DHT22;32646;50.958;6.258;2022-10-16T08:22:28;19.60;99.90
46898;DHT22;32646;50.958;6.258;2022-10-16T08:24:55;19.40;99.90
46898;DHT22;32646;50.958;6.258;2022-10-16T08:27:21;19.50;99.90
46898;DHT22;32646;50.958;6.258;2022-10-16T08:29:48;19.20;99.90
46898;DHT22;32646;50.958;6.258;2022-10-16T08:32:15;19.30;99.90
46898;DHT22;32646;50.958;6.258;2022-10-16T08:34:41;19.60;99.90
46898;DHT22;32646;50.958;6.258;2022-10-16T08:37:08;19.60;99.90
46898;DHT22;32646;50.958;6.258;2022-10-16T08:39:34;19.90;99.90
46898;DHT22;32646;50.958;6.258;2022-10-16T08:42:15;20.00;99.90
46898;DHT22;32646;50.958;6.258;2022-10-16T08:47:17;20.40;99.40
46898;DHT22;32646;50.958;6.258;2022-10-16T08:49:49;20.50;99.90
46898;DHT22;32646;50.958;6.258;2022-10-16T08:52:17;20.60;98.80
46898;DHT22;32646;50.958;6.258;2022-10-16T08:54:45;20.40;99.00
46898;DHT22;32646;50.958;6.258;2022-10-16T08:57:14;20.10;98.90
46898;DHT22;32646;50.958;6.258;2022-10-16T08:59:46;20.20;98.70
46898;DHT22;32646;50.958;6.258;2022-10-16T09:15:05;20.50;98.20
46898;DHT22;32646;50.958;6.258;2022-10-16T09:20:07;20.00;98.10
46898;DHT22;32646;50.958;6.258;2022-10-16T09:22:36;20.60;98.50
46898;DHT22;32646;50.958;6.258;2022-10-16T09:25:10;21.10;98.00
46898;DHT22;32646;50.958;6.258;2022-10-16T09:27:37;20.60;97.80
46898;DHT22;32646;50.958;6.258;2022-10-16T09:30:11;20.60;97.80
46898;DHT22;32646;50.958;6.258;2022-10-16T09:32:38;20.70;99.00
46898;DHT22;32646;50.958;6.258;2022-10-16T09:35:09;21.20;96.70
46898;DHT22;32646;50.958;6.258;2022-10-16T09:37:37;21.40;98.00
46898;DHT22;32646;50.958;6.258;2022-10-16T09:40:03;22.00;95.70
46898;DHT22;32646;50.958;6.258;2022-10-16T09:42:34;21.50;95.30
46898;DHT22;32646;50.958;6.258;2022-10-16T09:45:01;20.70;97.40
46898;DHT22;32646;50.958;6.258;2022-10-16T09:47:29;20.30;98.70
46898;DHT22;32646;50.958;6.258;2022-10-16T09:49:57;19.90;97.30
46898;DHT22;32646;50.958;6.258;2022-10-16T09:52:24;19.70;98.30
46898;DHT22;32646;50.958;6.258;2022-10-16T09:54:57;19.90;99.90
46898;DHT22;32646;50.958;6.258;2022-10-16T09:57:24;20.00;98.20
46898;DHT22;32646;50.958;6.258;2022-10-16T09:59:52;19.60;98.80
46898;DHT22;32646;50.958;6.258;2022-10-16T10:02:23;19.50;99.90
46898;DHT22;32646;50.958;6.258;2022-10-16T10:04:53;20.10;99.90
46898;DHT22;32646;50.958;6.258;2022-10-16T10:07:23;20.40;99.80
46898;DHT22;32646;50.958;6.258;2022-10-16T10:09:50;20.20;98.10
46898;DHT22;32646;50.958;6.258;2022-10-16T10:12:18;19.80;98.20
46898;DHT22;32646;50.958;6.258;2022-10-16T10:14:51;19.70;99.90
46898;DHT22;32646;50.958;6.258;2022-10-16T10:17:22;19.50;98.90
46898;DHT22;32646;50.958;6.258;2022-10-16T10:20:33;19.80;98.70
46898;DHT22;32646;50.958;6.258;2022-10-16T10:30:14;20.70;97.20
46898;DHT22;32646;50.958;6.258;2022-10-16T10:35:25;21.50;97.00
46898;DHT22;32646;50.958;6.258;2022-10-16T10:38:03;22.00;94.70
46898;DHT22;32646;50.958;6.258;2022-10-16T10:40:40;21.20;96.00
46898;DHT22;32646;50.958;6.258;2022-10-16T10:43:23;21.20;95.70
46898;DHT22;32646;50.958;6.258;2022-10-16T10:46:31;20.50;96.10
46898;DHT22;32646;50.958;6.258;2022-10-16T10:48:54;20.60;96.70
46898;DHT22;32646;50.958;6.258;2022-10-16T10:51:33;21.20;98.00
46898;DHT22;32646;50.958;6.258;2022-10-16T10:54:15;21.60;94.40
46898;DHT22;32646;50.958;6.258;2022-10-16T10:57:00;21.60;94.40
46898;DHT22;32646;50.958;6.258;2022-10-16T10:59:32;21.70;94.40
46898;DHT22;32646;50.958;6.258;2022-10-16T11:02:11;21.70;93.20
46898;DHT22;32646;50.958;6.258;2022-10-16T11:09:56;20.90;94.90
46898;DHT22;32646;50.958;6.258;2022-10-16T11:12:30;21.50;97.40
46898;DHT22;32646;50.958;6.258;2022-10-16T11:17:33;22.60;93.90
46898;DHT22;32646;50.958;6.258;2022-10-16T11:20:45;22.80;93.90
46898;DHT22;32646;50.958;6.258;2022-10-16T11:23:00;23.10;92.60
46898;DHT22;32646;50.958;6.258;2022-10-16T11:25:28;22.60;92.10
46898;DHT22;32646;50.958;6.258;2022-10-16T11:28:03;22.10;93.30
46898;DHT22;32646;50.958;6.258;2022-10-16T11:30:33;21.70;93.90
46898;DHT22;32646;50.958;6.258;2022-10-16T11:35:57;21.90;93.90
46898;DHT22;32646;50.958;6.258;2022-10-16T11:38:37;22.20;94.10
46898;DHT22;32646;50.958;6.258;2022-10-16T11:41:18;22.70;92.90
46898;DHT22;32646;50.958;6.258;2022-10-16T11:43:56;22.40;93.20
46898;DHT22;32646;50.958;6.258;2022-10-16T11:46:26;22.40;93.10
46898;DHT22;32646;50.958;6.258;2022-10-16T11:49:03;22.60;92.50
46898;DHT22;32646;50.958;6.258;2022-10-16T11:51:42;22.10;93.40
46898;DHT22;32646;50.958;6.258;2022-10-16T11:54:24;21.80;93.20
46898;DHT22;32646;50.958;6.258;2022-10-16T11:56:53;21.40;93.80
46898;DHT22;32646;50.958;6.258;2022-10-16T11:59:24;21.80;92.80
46898;DHT22;32646;50.958;6.258;2022-10-16T12:04:41;21.20;93.70
46898;DHT22;32646;50.958;6.258;2022-10-16T12:07:10;21.20;93.40
46898;DHT22;32646;50.958;6.258;2022-10-16T12:09:38;21.90;93.90
46898;DHT22;32646;50.958;6.258;2022-10-16T12:12:28;22.30;93.30
46898;DHT22;32646;50.958;6.258;2022-10-16T12:15:18;21.90;91.80
46898;DHT22;32646;50.958;6.258;2022-10-16T12:17:55;22.40;92.00
46898;DHT22;32646;50.958;6.258;2022-10-16T12:20:29;23.50;90.80
46898;DHT22;32646;50.958;6.258;2022-10-16T12:22:57;23.30;91.10
46898;DHT22;32646;50.958;6.258;2022-10-16T12:25:31;23.40;90.50
46898;DHT22;32646;50.958;6.258;2022-10-16T12:30:29;23.40;90.20
46898;DHT22;32646;50.958;6.258;2022-10-16T12:33:51;23.10;89.40
46898;DHT22;32646;50.958;6.258;2022-10-16T12:35:45;22.70;90.90
46898;DHT22;32646;50.958;6.258;2022-10-16T12:38:19;22.30;91.50
46898;DHT22;32646;50.958;6.258;2022-10-16T12:40:46;22.60;89.70
46898;DHT22;32646;50.958;6.258;2022-10-16T12:45:46;23.10;89.80
46898;DHT22;32646;50.958;6.258;2022-10-16T12:48:20;22.60;88.40
46898;DHT22;32646;50.958;6.258;2022-10-16T12:50:47;22.20;90.50
46898;DHT22;32646;50.958;6.258;2022-10-16T12:53:21;22.00;91.70
46898;DHT22;32646;50.958;6.258;2022-10-16T12:55:56;22.20;92.00
46898;DHT22;32646;50.958;6.258;2022-10-16T12:58:34;22.30;91.30
46898;DHT22;32646;50.958;6.258;2022-10-16T13:01:10;22.60;90.20
46898;DHT22;32646;50.958;6.258;2022-10-16T13:06:55;23.10;90.90
46898;DHT22;32646;50.958;6.258;2022-10-16T13:11:48;24.20;87.90
46898;DHT22;32646;50.958;6.258;2022-10-16T13:27:50;25.10;88.10
46898;DHT22;32646;50.958;6.258;2022-10-16T13:30:19;26.00;88.00
46898;DHT22;32646;50.958;6.258;2022-10-16T13:32:47;25.90;87.10
46898;DHT22;32646;50.958;6.258;2022-10-16T13:35:36;25.10;86.00
46898;DHT22;32646;50.958;6.258;2022-10-16T13:38:05;24.10;88.70
46898;DHT22;32646;50.958;6.258;2022-10-16T13:40:31;22.70;90.60
46898;DHT22;32646;50.958;6.258;2022-10-16T13:42:59;22.20;91.50
46898;DHT22;32646;50.958;6.258;2022-10-16T13:45:25;21.70;92.10
46898;DHT22;32646;50.958;6.258;2022-10-16T13:48:05;21.60;93.60
46898;DHT22;32646;50.958;6.258;2022-10-16T13:50:32;21.70;92.00
46898;DHT22;32646;50.958;6.258;2022-10-16T13:53:05;21.50;93.00
46898;DHT22;32646;50.958;6.258;2022-10-16T13:55:31;21.60;92.50
46898;DHT22;32646;50.958;6.258;2022-10-16T13:58:08;21.50;93.60
46898;DHT22;32646;50.958;6.258;2022-10-16T14:00:37;21.30;93.30
46898;DHT22;32646;50.958;6.258;2022-10-16T14:03:15;21.10;94.80
46898;DHT22;32646;50.958;6.258;2022-10-16T14:05:44;21.00;93.10
46898;DHT22;32646;50.958;6.258;2022-10-16T14:08:11;20.90;94.40
46898;DHT22;32646;50.958;6.258;2022-10-16T14:10:38;20.80;94.80
46898;DHT22;32646;50.958;6.258;2022-10-16T14:13:05;20.40;95.70
46898;DHT22;32646;50.958;6.258;2022-10-16T14:15:33;20.20;95.80
46898;DHT22;32646;50.958;6.258;2022-10-16T14:18:00;19.80;96.10
46898;DHT22;32646;50.958;6.258;2022-10-16T14:20:28;19.70;96.40
46898;DHT22;32646;50.958;6.258;2022-10-16T14:22:59;19.80;97.50
46898;DHT22;32646;50.958;6.258;2022-10-16T14:25:27;19.80;97.00
46898;DHT22;32646;50.958;6.258;2022-10-16T14:28:01;19.80;97.20
46898;DHT22;32646;50.958;6.258;2022-10-16T14:30:33;19.70;98.10
46898;DHT22;32646;50.958;6.258;2022-10-16T14:33:01;19.70;97.60
46898;DHT22;32646;50.958;6.258;2022-10-16T14:35:30;19.70;97.30
46898;DHT22;32646;50.958;6.258;2022-10-16T14:37:57;19.60;98.40
46898;DHT22;32646;50.958;6.258;2022-10-16T14:40:29;19.50;99.60
46898;DHT22;32646;50.958;6.258;2022-10-16T14:42:56;19.60;99.90
46898;DHT22;32646;50.958;6.258;2022-10-16T14:45:32;19.60;99.90
46898;DHT22;32646;50.958;6.258;2022-10-16T14:48:05;19.60;99.50
46898;DHT22;32646;50.958;6.258;2022-10-16T14:50:32;19.50;99.80
46898;DHT22;32646;50.958;6.258;2022-10-16T14:52:58;19.40;99.10
46898;DHT22;32646;50.958;6.258;2022-10-16T14:55:25;19.40;99.80
46898;DHT22;32646;50.958;6.258;2022-10-16T14:57:51;19.30;99.60
46898;DHT22;32646;50.958;6.258;2022-10-16T15:00:22;19.30;99.90
46898;DHT22;32646;50.958;6.258;2022-10-16T15:02:49;19.30;99.90
46898;DHT22;32646;50.958;6.258;2022-10-16T15:05:20;19.10;99.90
46898;DHT22;32646;50.958;6.258;2022-10-16T15:07:47;18.90;99.90
46898;DHT22;32646;50.958;6.258;2022-10-16T15:10:13;18.50;99.90
46898;DHT22;32646;50.958;6.258;2022-10-16T15:12:40;18.20;99.90
46898;DHT22;32646;50.958;6.258;2022-10-16T15:15:15;17.90;99.90
46898;DHT22;32646;50.958;6.258;2022-10-16T15:17:47;17.80;99.90
46898;DHT22;32646;50.958;6.258;2022-10-16T15:20:13;17.70;99.90
46898;DHT22;32646;50.958;6.258;2022-10-16T15:22:40;17.70;99.90
46898;DHT22;32646;50.958;6.258;2022-10-16T15:25:10;17.60;99.90
46898;DHT22;32646;50.958;6.258;2022-10-16T15:27:44;17.60;99.90
46898;DHT22;32646;50.958;6.258;2022-10-16T15:30:10;17.50;99.90
46898;DHT22;32646;50.958;6.258;2022-10-16T15:32:37;17.50;99.90
46898;DHT22;32646;50.958;6.258;2022-10-16T15:35:03;17.60;99.90
46898;DHT22;32646;50.958;6.258;2022-10-16T15:37:30;17.70;99.90
46898;DHT22;32646;50.958;6.258;2022-10-16T15:39:56;17.80;99.90
46898;DHT22;32646;50.958;6.258;2022-10-16T15:42:23;17.80;99.90
46898;DHT22;32646;50.958;6.258;2022-10-16T15:44:50;17.80;99.90
46898;DHT22;32646;50.958;6.258;2022-10-16T15:47:16;17.70;99.90
46898;DHT22;32646;50.958;6.258;2022-10-16T15:49:43;17.60;99.90
46898;DHT22;32646;50.958;6.258;2022-10-16T15:52:09;17.60;99.90
46898;DHT22;32646;50.958;6.258;2022-10-16T15:54:35;17.50;99.90
46898;DHT22;32646;50.958;6.258;2022-10-16T15:57:02;17.50;99.90
46898;DHT22;32646;50.958;6.258;2022-10-16T15:59:28;17.50;99.90
46898;DHT22;32646;50.958;6.258;2022-10-16T16:01:55;17.50;99.90
46898;DHT22;32646;50.958;6.258;2022-10-16T16:04:21;17.50;99.90
46898;DHT22;32646;50.958;6.258;2022-10-16T16:07:08;17.50;99.90
46898;DHT22;32646;50.958;6.258;2022-10-16T16:09:34;17.50;99.90
46898;DHT22;32646;50.958;6.258;2022-10-16T16:12:01;17.40;99.90
46898;DHT22;32646;50.958;6.258;2022-10-16T16:14:27;17.40;99.90
46898;DHT22;32646;50.958;6.258;2022-10-16T16:16:55;17.30;99.90
46898;DHT22;32646;50.958;6.258;2022-10-16T16:19:21;17.20;99.90
46898;DHT22;32646;50.958;6.258;2022-10-16T16:21:48;17.10;99.90
46898;DHT22;32646;50.958;6.258;2022-10-16T16:24:15;17.10;99.90
46898;DHT22;32646;50.958;6.258;2022-10-16T16:26:42;17.00;99.90
46898;DHT22;32646;50.958;6.258;2022-10-16T16:29:15;16.90;99.90
46898;DHT22;32646;50.958;6.258;2022-10-16T16:31:42;16.90;99.90
46898;DHT22;32646;50.958;6.258;2022-10-16T16:34:08;16.70;99.90
46898;DHT22;32646;50.958;6.258;2022-10-16T16:36:35;16.60;99.90
46898;DHT22;32646;50.958;6.258;2022-10-16T16:39:02;16.60;99.90
46898;DHT22;32646;50.958;6.258;2022-10-16T16:41:28;16.50;99.90
46898;DHT22;32646;50.958;6.258;2022-10-16T16:43:55;16.50;99.90
46898;DHT22;32646;50.958;6.258;2022-10-16T16:46:27;16.40;99.90
46898;DHT22;32646;50.958;6.258;2022-10-16T16:48:53;16.40;99.90
46898;DHT22;32646;50.958;6.258;2022-10-16T16:51:20;16.30;99.90
46898;DHT22;32646;50.958;6.258;2022-10-16T16:53:47;16.30;99.90
46898;DHT22;32646;50.958;6.258;2022-10-16T16:56:14;16.20;99.90
46898;DHT22;32646;50.958;6.258;2022-10-16T16:58:41;16.20;99.90